sensor_id;sensor_type;location;lat;lon;timestamp;P1;durP1;ratioP1;P2;durP2;ratioP2
62863;SDS011;48954;59.950;11.014;2022-08-04T00:00:25;13.00;;;3.90;;
62863;SDS011;48954;59.950;11.014;2022-08-04T00:03:11;9.60;;;3.20;;
62863;SDS011;48954;59.950;11.014;2022-08-04T00:05:51;9.10;;;3.30;;
62863;SDS011;48954;59.950;11.014;2022-08-04T00:08:44;9.50;;;3.90;;
62863;SDS011;48954;59.950;11.014;2022-08-04T00:11:25;10.80;;;3.30;;
62863;SDS011;48954;59.950;11.014;2022-08-04T00:14:08;8.00;;;3.00;;
62863;SDS011;48954;59.950;11.014;2022-08-04T00:16:40;12.50;;;3.20;;
62863;SDS011;48954;59.950;11.014;2022-08-04T00:21:51;11.00;;;3.30;;
62863;SDS011;48954;59.950;11.014;2022-08-04T00:24:25;14.10;;;3.10;;
62863;SDS011;48954;59.950;11.014;2022-08-04T00:26:55;8.00;;;3.40;;
62863;SDS011;48954;59.950;11.014;2022-08-04T00:29:22;10.50;;;3.70;;
62863;SDS011;48954;59.950;11.014;2022-08-04T00:31:49;6.40;;;3.00;;
62863;SDS011;48954;59.950;11.014;2022-08-04T00:34:15;10.00;;;3.50;;
62863;SDS011;48954;59.950;11.014;2022-08-04T00:36:44;9.50;;;3.40;;
62863;SDS011;48954;59.950;11.014;2022-08-04T00:39:11;9.00;;;3.30;;
62863;SDS011;48954;59.950;11.014;2022-08-04T00:53:54;10.00;;;3.40;;
62863;SDS011;48954;59.950;11.014;2022-08-04T00:59:02;7.10;;;3.00;;
62863;SDS011;48954;59.950;11.014;2022-08-04T01:04:43;7.10;;;3.30;;
62863;SDS011;48954;59.950;11.014;2022-08-04T01:09:57;11.30;;;3.40;;
62863;SDS011;48954;59.950;11.014;2022-08-04T01:12:33;8.90;;;3.10;;
62863;SDS011;48954;59.950;11.014;2022-08-04T01:15:22;9.00;;;3.20;;
62863;SDS011;48954;59.950;11.014;2022-08-04T01:18:05;13.60;;;4.20;;
62863;SDS011;48954;59.950;11.014;2022-08-04T01:20:38;11.00;;;3.20;;
62863;SDS011;48954;59.950;11.014;2022-08-04T01:29:04;10.30;;;3.50;;
62863;SDS011;48954;59.950;11.014;2022-08-04T01:32:04;8.90;;;3.20;;
62863;SDS011;48954;59.950;11.014;2022-08-04T01:35:04;9.30;;;3.00;;
62863;SDS011;48954;59.950;11.014;2022-08-04T01:40:44;7.20;;;3.00;;
62863;SDS011;48954;59.950;11.014;2022-08-04T01:43:12;9.00;;;3.10;;
62863;SDS011;48954;59.950;11.014;2022-08-04T01:45:40;8.70;;;3.30;;
62863;SDS011;48954;59.950;11.014;2022-08-04T01:48:10;12.90;;;4.30;;
62863;SDS011;48954;59.950;11.014;2022-08-04T01:50:39;8.80;;;2.70;;
62863;SDS011;48954;59.950;11.014;2022-08-04T01:53:09;8.80;;;3.50;;
62863;SDS011;48954;59.950;11.014;2022-08-04T01:55:39;9.60;;;3.20;;
62863;SDS011;48954;59.950;11.014;2022-08-04T01:58:08;7.10;;;2.80;;
62863;SDS011;48954;59.950;11.014;2022-08-04T02:00:38;9.10;;;3.30;;
62863;SDS011;48954;59.950;11.014;2022-08-04T02:03:14;8.30;;;3.10;;
62863;SDS011;48954;59.950;11.014;2022-08-04T02:05:42;11.60;;;3.30;;
62863;SDS011;48954;59.950;11.014;2022-08-04T02:11:14;7.60;;;2.70;;
62863;SDS011;48954;59.950;11.014;2022-08-04T02:21:47;9.70;;;3.10;;
62863;SDS011;48954;59.950;11.014;2022-08-04T02:24:22;8.40;;;3.10;;
62863;SDS011;48954;59.950;11.014;2022-08-04T02:26:54;6.90;;;2.50;;
62863;SDS011;48954;59.950;11.014;2022-08-04T02:29:29;9.60;;;3.40;;
62863;SDS011;48954;59.950;11.014;2022-08-04T02:32:05;8.80;;;3.10;;
62863;SDS011;48954;59.950;11.014;2022-08-04T02:34:39;7.70;;;2.80;;
62863;SDS011;48954;59.950;11.014;2022-08-04T02:37:16;8.60;;;3.40;;
62863;SDS011;48954;59.950;11.014;2022-08-04T02:39:45;6.70;;;3.10;;
62863;SDS011;48954;59.950;11.014;2022-08-04T02:42:15;5.70;;;2.60;;
62863;SDS011;48954;59.950;11.014;2022-08-04T02:44:41;10.20;;;3.10;;
62863;SDS011;48954;59.950;11.014;2022-08-04T02:47:08;5.60;;;3.00;;
62863;SDS011;48954;59.950;11.014;2022-08-04T02:49:36;6.80;;;3.50;;
62863;SDS011;48954;59.950;11.014;2022-08-04T02:52:03;7.10;;;2.60;;
62863;SDS011;48954;59.950;11.014;2022-08-04T02:54:34;8.60;;;3.00;;
62863;SDS011;48954;59.950;11.014;2022-08-04T02:57:04;9.20;;;2.90;;
62863;SDS011;48954;59.950;11.014;2022-08-04T02:59:56;8.70;;;3.00;;
62863;SDS011;48954;59.950;11.014;2022-08-04T03:02:27;5.80;;;2.70;;
62863;SDS011;48954;59.950;11.014;2022-08-04T03:05:02;5.80;;;2.70;;
62863;SDS011;48954;59.950;11.014;2022-08-04T03:10:50;7.80;;;2.90;;
62863;SDS011;48954;59.950;11.014;2022-08-04T03:16:26;9.60;;;3.50;;
62863;SDS011;48954;59.950;11.014;2022-08-04T03:19:33;7.90;;;3.40;;
62863;SDS011;48954;59.950;11.014;2022-08-04T03:31:13;9.10;;;3.30;;
62863;SDS011;48954;59.950;11.014;2022-08-04T03:40:02;7.70;;;3.30;;
62863;SDS011;48954;59.950;11.014;2022-08-04T03:54:02;10.70;;;3.40;;
62863;SDS011;48954;59.950;11.014;2022-08-04T04:08:21;11.50;;;4.40;;
62863;SDS011;48954;59.950;11.014;2022-08-04T04:25:28;13.40;;;5.20;;
62863;SDS011;48954;59.950;11.014;2022-08-04T04:31:26;13.20;;;5.80;;
62863;SDS011;48954;59.950;11.014;2022-08-04T04:34:18;11.90;;;5.40;;
62863;SDS011;48954;59.950;11.014;2022-08-04T04:37:41;9.20;;;5.20;;
62863;SDS011;48954;59.950;11.014;2022-08-04T04:40:14;12.10;;;5.70;;
62863;SDS011;48954;59.950;11.014;2022-08-04T04:59:15;12.30;;;4.60;;
62863;SDS011;48954;59.950;11.014;2022-08-04T05:10:27;11.40;;;4.30;;
62863;SDS011;48954;59.950;11.014;2022-08-04T05:15:59;7.50;;;3.80;;
62863;SDS011;48954;59.950;11.014;2022-08-04T05:18:31;14.90;;;4.80;;
62863;SDS011;48954;59.950;11.014;2022-08-04T05:21:08;8.60;;;4.40;;
62863;SDS011;48954;59.950;11.014;2022-08-04T05:23:39;10.30;;;4.70;;
62863;SDS011;48954;59.950;11.014;2022-08-04T05:26:15;10.70;;;4.40;;
62863;SDS011;48954;59.950;11.014;2022-08-04T05:28:53;9.40;;;4.50;;
62863;SDS011;48954;59.950;11.014;2022-08-04T05:31:26;8.90;;;3.90;;
62863;SDS011;48954;59.950;11.014;2022-08-04T05:34:01;11.10;;;3.80;;
62863;SDS011;48954;59.950;11.014;2022-08-04T05:36:46;7.80;;;3.60;;
62863;SDS011;48954;59.950;11.014;2022-08-04T05:39:19;9.80;;;3.90;;
62863;SDS011;48954;59.950;11.014;2022-08-04T05:41:51;9.60;;;3.60;;
62863;SDS011;48954;59.950;11.014;2022-08-04T05:44:18;9.60;;;3.70;;
62863;SDS011;48954;59.950;11.014;2022-08-04T05:46:48;10.60;;;3.70;;
62863;SDS011;48954;59.950;11.014;2022-08-04T05:49:17;9.10;;;3.60;;
62863;SDS011;48954;59.950;11.014;2022-08-04T05:51:45;11.80;;;3.30;;
62863;SDS011;48954;59.950;11.014;2022-08-04T05:54:14;6.40;;;3.40;;
62863;SDS011;48954;59.950;11.014;2022-08-04T05:56:43;6.00;;;3.10;;
62863;SDS011;48954;59.950;11.014;2022-08-04T05:59:10;8.00;;;3.30;;
62863;SDS011;48954;59.950;11.014;2022-08-04T06:01:38;5.20;;;3.20;;
62863;SDS011;48954;59.950;11.014;2022-08-04T06:04:05;6.60;;;3.70;;
62863;SDS011;48954;59.950;11.014;2022-08-04T06:06:33;8.90;;;4.20;;
62863;SDS011;48954;59.950;11.014;2022-08-04T06:09:02;7.30;;;3.80;;
62863;SDS011;48954;59.950;11.014;2022-08-04T06:11:29;7.70;;;3.30;;
62863;SDS011;48954;59.950;11.014;2022-08-04T06:13:56;8.70;;;3.80;;
62863;SDS011;48954;59.950;11.014;2022-08-04T06:16:33;11.10;;;3.80;;
62863;SDS011;48954;59.950;11.014;2022-08-04T06:19:04;8.40;;;3.50;;
62863;SDS011;48954;59.950;11.014;2022-08-04T06:21:33;9.50;;;3.30;;
62863;SDS011;48954;59.950;11.014;2022-08-04T06:24:02;8.40;;;3.50;;
62863;SDS011;48954;59.950;11.014;2022-08-04T06:30:10;8.80;;;3.70;;
62863;SDS011;48954;59.950;11.014;2022-08-04T06:32:37;8.00;;;3.40;;
62863;SDS011;48954;59.950;11.014;2022-08-04T06:35:09;6.30;;;3.40;;
62863;SDS011;48954;59.950;11.014;2022-08-04T06:37:36;8.20;;;3.20;;
62863;SDS011;48954;59.950;11.014;2022-08-04T06:40:03;6.80;;;3.20;;
62863;SDS011;48954;59.950;11.014;2022-08-04T06:42:41;7.00;;;3.00;;
62863;SDS011;48954;59.950;11.014;2022-08-04T06:45:09;9.70;;;4.30;;
62863;SDS011;48954;59.950;11.014;2022-08-04T06:50:29;6.80;;;3.40;;
62863;SDS011;48954;59.950;11.014;2022-08-04T06:52:57;7.90;;;3.10;;
62863;SDS011;48954;59.950;11.014;2022-08-04T06:55:23;7.20;;;3.50;;
62863;SDS011;48954;59.950;11.014;2022-08-04T06:57:54;8.30;;;3.60;;
62863;SDS011;48954;59.950;11.014;2022-08-04T07:00:22;5.90;;;3.50;;
62863;SDS011;48954;59.950;11.014;2022-08-04T07:02:50;7.90;;;3.00;;
62863;SDS011;48954;59.950;11.014;2022-08-04T07:05:18;8.70;;;3.40;;
62863;SDS011;48954;59.950;11.014;2022-08-04T07:07:51;9.80;;;3.80;;
62863;SDS011;48954;59.950;11.014;2022-08-04T07:10:18;7.60;;;3.00;;
62863;SDS011;48954;59.950;11.014;2022-08-04T07:12:48;7.90;;;2.80;;
62863;SDS011;48954;59.950;11.014;2022-08-04T07:15:15;11.60;;;3.10;;
62863;SDS011;48954;59.950;11.014;2022-08-04T07:17:48;5.80;;;3.00;;
62863;SDS011;48954;59.950;11.014;2022-08-04T07:20:18;7.50;;;2.90;;
62863;SDS011;48954;59.950;11.014;2022-08-04T07:22:46;7.50;;;2.90;;
62863;SDS011;48954;59.950;11.014;2022-08-04T07:25:14;7.00;;;3.00;;
62863;SDS011;48954;59.950;11.014;2022-08-04T07:27:41;11.20;;;3.50;;
62863;SDS011;48954;59.950;11.014;2022-08-04T07:30:08;8.20;;;3.20;;
62863;SDS011;48954;59.950;11.014;2022-08-04T07:32:36;8.20;;;2.90;;
62863;SDS011;48954;59.950;11.014;2022-08-04T07:35:03;6.50;;;3.10;;
62863;SDS011;48954;59.950;11.014;2022-08-04T07:37:32;10.40;;;4.00;;
62863;SDS011;48954;59.950;11.014;2022-08-04T07:39:59;9.00;;;3.30;;
62863;SDS011;48954;59.950;11.014;2022-08-04T07:42:26;6.80;;;2.70;;
62863;SDS011;48954;59.950;11.014;2022-08-04T07:44:53;8.60;;;3.20;;
62863;SDS011;48954;59.950;11.014;2022-08-04T07:47:20;5.20;;;3.10;;
62863;SDS011;48954;59.950;11.014;2022-08-04T07:49:47;6.30;;;2.80;;
62863;SDS011;48954;59.950;11.014;2022-08-04T07:52:13;5.20;;;2.60;;
62863;SDS011;48954;59.950;11.014;2022-08-04T07:54:41;5.30;;;2.70;;
62863;SDS011;48954;59.950;11.014;2022-08-04T07:57:08;6.50;;;2.80;;
62863;SDS011;48954;59.950;11.014;2022-08-04T07:59:34;4.90;;;2.60;;
62863;SDS011;48954;59.950;11.014;2022-08-04T08:02:01;5.30;;;2.60;;
62863;SDS011;48954;59.950;11.014;2022-08-04T08:04:28;5.10;;;2.50;;
62863;SDS011;48954;59.950;11.014;2022-08-04T08:06:56;5.90;;;3.30;;
62863;SDS011;48954;59.950;11.014;2022-08-04T08:09:23;7.00;;;2.90;;
62863;SDS011;48954;59.950;11.014;2022-08-04T08:11:50;3.80;;;2.50;;
62863;SDS011;48954;59.950;11.014;2022-08-04T08:14:18;5.30;;;2.40;;
62863;SDS011;48954;59.950;11.014;2022-08-04T08:16:45;7.60;;;2.90;;
62863;SDS011;48954;59.950;11.014;2022-08-04T08:19:13;6.20;;;3.10;;
62863;SDS011;48954;59.950;11.014;2022-08-04T08:21:40;6.50;;;2.80;;
62863;SDS011;48954;59.950;11.014;2022-08-04T08:24:11;5.60;;;3.00;;
62863;SDS011;48954;59.950;11.014;2022-08-04T08:26:38;6.40;;;2.60;;
62863;SDS011;48954;59.950;11.014;2022-08-04T08:29:06;6.50;;;2.70;;
62863;SDS011;48954;59.950;11.014;2022-08-04T08:31:33;5.30;;;2.50;;
62863;SDS011;48954;59.950;11.014;2022-08-04T08:34:00;4.50;;;2.40;;
62863;SDS011;48954;59.950;11.014;2022-08-04T08:39:07;5.40;;;2.20;;
62863;SDS011;48954;59.950;11.014;2022-08-04T08:50:21;5.10;;;2.00;;
62863;SDS011;48954;59.950;11.014;2022-08-04T08:53:26;5.20;;;2.10;;
62863;SDS011;48954;59.950;11.014;2022-08-04T08:56:32;5.50;;;2.00;;
62863;SDS011;48954;59.950;11.014;2022-08-04T08:59:24;4.10;;;2.00;;
62863;SDS011;48954;59.950;11.014;2022-08-04T09:05:07;4.70;;;2.40;;
62863;SDS011;48954;59.950;11.014;2022-08-04T09:13:40;5.60;;;2.70;;
62863;SDS011;48954;59.950;11.014;2022-08-04T09:16:16;5.30;;;2.60;;
62863;SDS011;48954;59.950;11.014;2022-08-04T09:18:55;6.00;;;2.90;;
62863;SDS011;48954;59.950;11.014;2022-08-04T09:21:39;8.20;;;2.50;;
62863;SDS011;48954;59.950;11.014;2022-08-04T09:24:28;5.10;;;2.30;;
62863;SDS011;48954;59.950;11.014;2022-08-04T09:27:02;6.40;;;2.30;;
62863;SDS011;48954;59.950;11.014;2022-08-04T09:41:03;5.60;;;2.30;;
62863;SDS011;48954;59.950;11.014;2022-08-04T09:49:15;7.20;;;2.70;;
62863;SDS011;48954;59.950;11.014;2022-08-04T09:51:48;8.10;;;2.40;;
62863;SDS011;48954;59.950;11.014;2022-08-04T09:59:57;7.30;;;2.70;;
62863;SDS011;48954;59.950;11.014;2022-08-04T10:02:43;7.80;;;2.90;;
62863;SDS011;48954;59.950;11.014;2022-08-04T10:05:19;5.90;;;3.00;;
62863;SDS011;48954;59.950;11.014;2022-08-04T10:10:20;6.10;;;2.90;;
62863;SDS011;48954;59.950;11.014;2022-08-04T10:28:04;9.40;;;3.00;;
62863;SDS011;48954;59.950;11.014;2022-08-04T10:30:40;6.50;;;2.50;;
62863;SDS011;48954;59.950;11.014;2022-08-04T10:33:30;6.20;;;2.40;;
62863;SDS011;48954;59.950;11.014;2022-08-04T10:36:03;5.70;;;2.80;;
62863;SDS011;48954;59.950;11.014;2022-08-04T10:38:45;5.60;;;2.30;;
62863;SDS011;48954;59.950;11.014;2022-08-04T10:41:24;4.50;;;2.10;;
62863;SDS011;48954;59.950;11.014;2022-08-04T10:44:01;8.30;;;2.80;;
62863;SDS011;48954;59.950;11.014;2022-08-04T10:46:54;4.40;;;2.20;;
62863;SDS011;48954;59.950;11.014;2022-08-04T10:49:37;7.20;;;2.30;;
62863;SDS011;48954;59.950;11.014;2022-08-04T10:52:18;6.10;;;2.30;;
62863;SDS011;48954;59.950;11.014;2022-08-04T10:55:07;7.80;;;3.40;;
62863;SDS011;48954;59.950;11.014;2022-08-04T10:57:44;9.00;;;2.10;;
62863;SDS011;48954;59.950;11.014;2022-08-04T11:00:31;4.50;;;2.30;;
62863;SDS011;48954;59.950;11.014;2022-08-04T11:03:33;5.80;;;2.50;;
62863;SDS011;48954;59.950;11.014;2022-08-04T11:06:10;4.90;;;1.90;;
62863;SDS011;48954;59.950;11.014;2022-08-04T11:08:41;5.30;;;2.30;;
62863;SDS011;48954;59.950;11.014;2022-08-04T11:11:11;7.30;;;2.30;;
62863;SDS011;48954;59.950;11.014;2022-08-04T11:13:48;9.30;;;2.80;;
62863;SDS011;48954;59.950;11.014;2022-08-04T11:19:16;8.30;;;2.30;;
62863;SDS011;48954;59.950;11.014;2022-08-04T11:21:59;7.70;;;2.60;;
62863;SDS011;48954;59.950;11.014;2022-08-04T11:24:36;7.00;;;2.20;;
62863;SDS011;48954;59.950;11.014;2022-08-04T11:27:10;9.00;;;2.50;;
62863;SDS011;48954;59.950;11.014;2022-08-04T11:32:31;10.10;;;2.30;;
62863;SDS011;48954;59.950;11.014;2022-08-04T11:35:05;7.10;;;2.30;;
62863;SDS011;48954;59.950;11.014;2022-08-04T11:37:42;6.80;;;2.00;;
62863;SDS011;48954;59.950;11.014;2022-08-04T11:40:22;6.80;;;2.00;;
62863;SDS011;48954;59.950;11.014;2022-08-04T11:43:09;7.80;;;2.40;;
62863;SDS011;48954;59.950;11.014;2022-08-04T11:45:50;8.50;;;3.30;;
62863;SDS011;48954;59.950;11.014;2022-08-04T11:48:25;8.30;;;2.70;;
62863;SDS011;48954;59.950;11.014;2022-08-04T11:50:59;6.00;;;2.50;;
62863;SDS011;48954;59.950;11.014;2022-08-04T11:53:26;8.30;;;2.90;;
62863;SDS011;48954;59.950;11.014;2022-08-04T11:55:57;8.70;;;3.80;;
62863;SDS011;48954;59.950;11.014;2022-08-04T11:58:27;6.20;;;2.60;;
62863;SDS011;48954;59.950;11.014;2022-08-04T12:03:53;8.00;;;3.00;;
62863;SDS011;48954;59.950;11.014;2022-08-04T12:06:24;11.50;;;3.90;;
62863;SDS011;48954;59.950;11.014;2022-08-04T12:09:08;8.00;;;3.40;;
62863;SDS011;48954;59.950;11.014;2022-08-04T12:12:31;7.00;;;3.60;;
62863;SDS011;48954;59.950;11.014;2022-08-04T12:14:54;9.50;;;3.20;;
62863;SDS011;48954;59.950;11.014;2022-08-04T12:17:55;8.00;;;3.20;;
62863;SDS011;48954;59.950;11.014;2022-08-04T12:20:29;8.20;;;3.80;;
62863;SDS011;48954;59.950;11.014;2022-08-04T12:23:05;12.00;;;3.50;;
62863;SDS011;48954;59.950;11.014;2022-08-04T12:25:35;6.70;;;3.40;;
62863;SDS011;48954;59.950;11.014;2022-08-04T12:28:25;12.30;;;3.80;;
62863;SDS011;48954;59.950;11.014;2022-08-04T12:34:03;6.70;;;3.50;;
62863;SDS011;48954;59.950;11.014;2022-08-04T12:36:44;9.90;;;3.80;;
62863;SDS011;48954;59.950;11.014;2022-08-04T12:39:15;6.70;;;3.70;;
62863;SDS011;48954;59.950;11.014;2022-08-04T12:41:45;9.60;;;3.90;;
62863;SDS011;48954;59.950;11.014;2022-08-04T12:44:38;7.70;;;3.50;;
62863;SDS011;48954;59.950;11.014;2022-08-04T12:47:07;7.60;;;3.80;;
62863;SDS011;48954;59.950;11.014;2022-08-04T12:49:36;6.50;;;3.70;;
62863;SDS011;48954;59.950;11.014;2022-08-04T12:52:07;10.40;;;4.10;;
62863;SDS011;48954;59.950;11.014;2022-08-04T12:54:36;6.70;;;3.70;;
62863;SDS011;48954;59.950;11.014;2022-08-04T12:57:08;6.80;;;3.40;;
62863;SDS011;48954;59.950;11.014;2022-08-04T12:59:36;7.30;;;4.00;;
62863;SDS011;48954;59.950;11.014;2022-08-04T13:02:21;6.60;;;3.70;;
62863;SDS011;48954;59.950;11.014;2022-08-04T13:04:52;7.60;;;3.40;;
62863;SDS011;48954;59.950;11.014;2022-08-04T13:07:22;6.00;;;3.50;;
62863;SDS011;48954;59.950;11.014;2022-08-04T13:09:51;7.40;;;3.30;;
62863;SDS011;48954;59.950;11.014;2022-08-04T13:12:19;5.80;;;3.40;;
62863;SDS011;48954;59.950;11.014;2022-08-04T13:14:48;7.80;;;3.90;;
62863;SDS011;48954;59.950;11.014;2022-08-04T13:17:18;6.90;;;3.70;;
62863;SDS011;48954;59.950;11.014;2022-08-04T13:19:46;6.20;;;3.60;;
62863;SDS011;48954;59.950;11.014;2022-08-04T13:22:27;8.40;;;3.50;;
62863;SDS011;48954;59.950;11.014;2022-08-04T13:24:57;6.60;;;3.40;;
62863;SDS011;48954;59.950;11.014;2022-08-04T13:27:28;8.70;;;3.50;;
62863;SDS011;48954;59.950;11.014;2022-08-04T13:29:55;8.40;;;3.90;;
62863;SDS011;48954;59.950;11.014;2022-08-04T13:32:23;7.90;;;3.70;;
62863;SDS011;48954;59.950;11.014;2022-08-04T13:34:53;7.50;;;3.70;;
62863;SDS011;48954;59.950;11.014;2022-08-04T13:37:33;8.20;;;3.90;;
62863;SDS011;48954;59.950;11.014;2022-08-04T13:40:04;10.30;;;4.10;;
62863;SDS011;48954;59.950;11.014;2022-08-04T13:42:35;10.20;;;4.10;;
62863;SDS011;48954;59.950;11.014;2022-08-04T13:45:05;6.30;;;3.70;;
62863;SDS011;48954;59.950;11.014;2022-08-04T13:47:43;6.70;;;3.40;;
62863;SDS011;48954;59.950;11.014;2022-08-04T13:53:10;8.20;;;4.20;;
62863;SDS011;48954;59.950;11.014;2022-08-04T13:55:38;7.80;;;3.80;;
62863;SDS011;48954;59.950;11.014;2022-08-04T13:58:20;7.90;;;3.50;;
62863;SDS011;48954;59.950;11.014;2022-08-04T14:01:03;9.30;;;4.40;;
62863;SDS011;48954;59.950;11.014;2022-08-04T14:03:36;6.70;;;3.80;;
62863;SDS011;48954;59.950;11.014;2022-08-04T14:08:47;6.50;;;3.90;;
62863;SDS011;48954;59.950;11.014;2022-08-04T14:11:16;9.10;;;3.70;;
62863;SDS011;48954;59.950;11.014;2022-08-04T14:13:44;7.00;;;3.40;;
62863;SDS011;48954;59.950;11.014;2022-08-04T14:16:17;5.60;;;3.10;;
62863;SDS011;48954;59.950;11.014;2022-08-04T14:18:59;6.30;;;3.70;;
62863;SDS011;48954;59.950;11.014;2022-08-04T14:21:27;5.40;;;3.40;;
62863;SDS011;48954;59.950;11.014;2022-08-04T14:24:00;7.50;;;3.20;;
62863;SDS011;48954;59.950;11.014;2022-08-04T14:26:29;7.50;;;3.60;;
62863;SDS011;48954;59.950;11.014;2022-08-04T14:29:34;8.80;;;3.60;;
62863;SDS011;48954;59.950;11.014;2022-08-04T14:32:02;5.60;;;3.40;;
62863;SDS011;48954;59.950;11.014;2022-08-04T14:34:36;6.50;;;3.20;;
62863;SDS011;48954;59.950;11.014;2022-08-04T14:37:09;6.80;;;3.40;;
62863;SDS011;48954;59.950;11.014;2022-08-04T14:39:45;8.10;;;3.90;;
62863;SDS011;48954;59.950;11.014;2022-08-04T14:42:14;5.60;;;3.20;;
62863;SDS011;48954;59.950;11.014;2022-08-04T14:44:56;6.10;;;3.40;;
62863;SDS011;48954;59.950;11.014;2022-08-04T14:47:39;8.10;;;3.80;;
62863;SDS011;48954;59.950;11.014;2022-08-04T14:50:31;6.40;;;4.60;;
62863;SDS011;48954;59.950;11.014;2022-08-04T14:53:16;8.10;;;4.20;;
62863;SDS011;48954;59.950;11.014;2022-08-04T14:56:13;8.30;;;3.70;;
62863;SDS011;48954;59.950;11.014;2022-08-04T14:59:02;6.30;;;3.70;;
62863;SDS011;48954;59.950;11.014;2022-08-04T15:01:39;7.00;;;3.50;;
62863;SDS011;48954;59.950;11.014;2022-08-04T15:04:13;8.00;;;4.10;;
62863;SDS011;48954;59.950;11.014;2022-08-04T15:06:48;8.10;;;4.20;;
62863;SDS011;48954;59.950;11.014;2022-08-04T15:09:20;7.30;;;3.80;;
62863;SDS011;48954;59.950;11.014;2022-08-04T15:12:23;7.30;;;4.60;;
62863;SDS011;48954;59.950;11.014;2022-08-04T15:14:53;6.90;;;4.20;;
62863;SDS011;48954;59.950;11.014;2022-08-04T15:17:35;7.70;;;4.10;;
62863;SDS011;48954;59.950;11.014;2022-08-04T15:20:08;8.20;;;4.60;;
62863;SDS011;48954;59.950;11.014;2022-08-04T15:22:39;6.80;;;4.40;;
62863;SDS011;48954;59.950;11.014;2022-08-04T15:25:20;6.40;;;4.10;;
62863;SDS011;48954;59.950;11.014;2022-08-04T15:28:00;9.40;;;4.60;;
62863;SDS011;48954;59.950;11.014;2022-08-04T15:30:36;7.70;;;4.00;;
62863;SDS011;48954;59.950;11.014;2022-08-04T15:33:07;8.30;;;4.70;;
62863;SDS011;48954;59.950;11.014;2022-08-04T15:39:03;7.80;;;3.70;;
62863;SDS011;48954;59.950;11.014;2022-08-04T15:44:54;6.20;;;3.40;;
62863;SDS011;48954;59.950;11.014;2022-08-04T15:47:35;8.10;;;4.30;;
62863;SDS011;48954;59.950;11.014;2022-08-04T15:50:08;7.60;;;4.00;;
62863;SDS011;48954;59.950;11.014;2022-08-04T15:55:42;6.90;;;4.00;;
62863;SDS011;48954;59.950;11.014;2022-08-04T15:58:15;6.10;;;4.10;;
62863;SDS011;48954;59.950;11.014;2022-08-04T16:11:36;9.20;;;4.20;;
62863;SDS011;48954;59.950;11.014;2022-08-04T16:19:25;8.20;;;4.00;;
62863;SDS011;48954;59.950;11.014;2022-08-04T16:22:00;8.50;;;3.70;;
62863;SDS011;48954;59.950;11.014;2022-08-04T16:24:38;8.70;;;4.40;;
62863;SDS011;48954;59.950;11.014;2022-08-04T16:27:12;5.50;;;4.00;;
62863;SDS011;48954;59.950;11.014;2022-08-04T16:29:44;5.70;;;4.00;;
62863;SDS011;48954;59.950;11.014;2022-08-04T16:32:26;8.20;;;4.50;;
62863;SDS011;48954;59.950;11.014;2022-08-04T16:35:23;6.80;;;4.20;;
62863;SDS011;48954;59.950;11.014;2022-08-04T16:38:14;6.50;;;3.70;;
62863;SDS011;48954;59.950;11.014;2022-08-04T16:40:42;6.50;;;3.90;;
62863;SDS011;48954;59.950;11.014;2022-08-04T16:43:29;7.30;;;4.70;;
62863;SDS011;48954;59.950;11.014;2022-08-04T16:46:01;8.80;;;4.30;;
62863;SDS011;48954;59.950;11.014;2022-08-04T16:48:29;8.00;;;4.90;;
62863;SDS011;48954;59.950;11.014;2022-08-04T16:51:05;8.30;;;4.50;;
62863;SDS011;48954;59.950;11.014;2022-08-04T16:53:40;7.50;;;4.60;;
62863;SDS011;48954;59.950;11.014;2022-08-04T16:56:28;6.80;;;3.80;;
62863;SDS011;48954;59.950;11.014;2022-08-04T16:58:57;8.50;;;4.60;;
62863;SDS011;48954;59.950;11.014;2022-08-04T17:01:49;8.00;;;5.30;;
62863;SDS011;48954;59.950;11.014;2022-08-04T17:04:28;8.10;;;5.10;;
62863;SDS011;48954;59.950;11.014;2022-08-04T17:07:09;8.80;;;4.60;;
62863;SDS011;48954;59.950;11.014;2022-08-04T17:09:47;6.70;;;4.10;;
62863;SDS011;48954;59.950;11.014;2022-08-04T17:12:15;7.00;;;4.60;;
62863;SDS011;48954;59.950;11.014;2022-08-04T17:14:56;8.60;;;3.90;;
62863;SDS011;48954;59.950;11.014;2022-08-04T17:17:36;6.50;;;4.00;;
62863;SDS011;48954;59.950;11.014;2022-08-04T17:20:06;6.70;;;4.40;;
62863;SDS011;48954;59.950;11.014;2022-08-04T17:22:54;8.50;;;4.90;;
62863;SDS011;48954;59.950;11.014;2022-08-04T17:25:55;7.00;;;4.20;;
62863;SDS011;48954;59.950;11.014;2022-08-04T17:28:58;7.60;;;4.50;;
62863;SDS011;48954;59.950;11.014;2022-08-04T17:31:46;6.60;;;4.20;;
62863;SDS011;48954;59.950;11.014;2022-08-04T17:34:28;7.60;;;4.00;;
62863;SDS011;48954;59.950;11.014;2022-08-04T17:37:00;7.10;;;4.40;;
62863;SDS011;48954;59.950;11.014;2022-08-04T17:39:33;7.80;;;4.50;;
62863;SDS011;48954;59.950;11.014;2022-08-04T17:45:39;9.30;;;4.70;;
62863;SDS011;48954;59.950;11.014;2022-08-04T17:48:19;7.60;;;4.70;;
62863;SDS011;48954;59.950;11.014;2022-08-04T17:50:50;7.50;;;5.00;;
62863;SDS011;48954;59.950;11.014;2022-08-04T17:53:34;8.50;;;5.20;;
62863;SDS011;48954;59.950;11.014;2022-08-04T17:56:02;7.00;;;5.10;;
62863;SDS011;48954;59.950;11.014;2022-08-04T17:58:29;7.70;;;4.80;;
62863;SDS011;48954;59.950;11.014;2022-08-04T18:00:59;7.60;;;4.80;;
62863;SDS011;48954;59.950;11.014;2022-08-04T18:03:27;5.90;;;4.40;;
62863;SDS011;48954;59.950;11.014;2022-08-04T18:06:11;7.40;;;4.60;;
62863;SDS011;48954;59.950;11.014;2022-08-04T18:08:41;8.30;;;4.50;;
62863;SDS011;48954;59.950;11.014;2022-08-04T18:11:21;8.30;;;4.60;;
62863;SDS011;48954;59.950;11.014;2022-08-04T18:13:51;8.40;;;4.60;;
62863;SDS011;48954;59.950;11.014;2022-08-04T18:16:21;8.90;;;4.40;;
62863;SDS011;48954;59.950;11.014;2022-08-04T18:19:10;6.10;;;4.50;;
62863;SDS011;48954;59.950;11.014;2022-08-04T18:21:40;7.80;;;4.20;;
62863;SDS011;48954;59.950;11.014;2022-08-04T18:24:12;8.80;;;4.90;;
62863;SDS011;48954;59.950;11.014;2022-08-04T18:26:43;9.10;;;4.60;;
62863;SDS011;48954;59.950;11.014;2022-08-04T18:29:10;6.20;;;4.20;;
62863;SDS011;48954;59.950;11.014;2022-08-04T18:31:48;8.00;;;4.00;;
62863;SDS011;48954;59.950;11.014;2022-08-04T18:34:15;7.00;;;3.70;;
62863;SDS011;48954;59.950;11.014;2022-08-04T18:36:48;7.90;;;5.00;;
62863;SDS011;48954;59.950;11.014;2022-08-04T18:39:16;6.90;;;4.30;;
62863;SDS011;48954;59.950;11.014;2022-08-04T18:41:44;7.20;;;4.30;;
62863;SDS011;48954;59.950;11.014;2022-08-04T18:44:13;8.10;;;3.70;;
62863;SDS011;48954;59.950;11.014;2022-08-04T18:46:54;8.20;;;5.00;;
62863;SDS011;48954;59.950;11.014;2022-08-04T18:49:22;7.50;;;3.80;;
62863;SDS011;48954;59.950;11.014;2022-08-04T18:51:51;6.90;;;3.90;;
62863;SDS011;48954;59.950;11.014;2022-08-04T18:54:19;7.20;;;4.20;;
62863;SDS011;48954;59.950;11.014;2022-08-04T19:00:00;7.70;;;5.10;;
62863;SDS011;48954;59.950;11.014;2022-08-04T19:02:27;5.80;;;3.70;;
62863;SDS011;48954;59.950;11.014;2022-08-04T19:05:09;8.60;;;4.20;;
62863;SDS011;48954;59.950;11.014;2022-08-04T19:07:49;6.20;;;4.60;;
62863;SDS011;48954;59.950;11.014;2022-08-04T19:10:29;7.00;;;4.50;;
62863;SDS011;48954;59.950;11.014;2022-08-04T19:12:56;8.10;;;4.40;;
62863;SDS011;48954;59.950;11.014;2022-08-04T19:15:36;6.70;;;3.80;;
62863;SDS011;48954;59.950;11.014;2022-08-04T19:18:15;6.10;;;4.20;;
62863;SDS011;48954;59.950;11.014;2022-08-04T19:20:56;5.80;;;4.00;;
62863;SDS011;48954;59.950;11.014;2022-08-04T19:23:26;6.60;;;4.50;;
62863;SDS011;48954;59.950;11.014;2022-08-04T19:26:07;5.20;;;3.90;;
62863;SDS011;48954;59.950;11.014;2022-08-04T19:28:35;5.80;;;3.90;;